Time;durP1;ratioP1;P1;durP2;ratioP2;P2;SDS_P1;SDS_P2;PMS_P1;PMS_P2;Temp;Humidity;BMP_temperature;BMP_pressure;BME280_temperature;BME280_humidity;BME280_pressure;Samples;Min_cycle;Max_cycle;Signal;HPM_P1;HPM_P2
2023/01/02 00:00:25;;;;;;;0.30;0.30;;;;;;;12.99;74.12;100584.13;5138920;28;20059;-83
2023/01/02 00:02:59;;;;;;;0.50;0.50;;;;;;;13.03;73.14;100578.69;5120699;28;20066;-83
2023/01/02 00:05:29;;;;;;;0.50;0.50;;;;;;;13.00;73.31;100570.06;5138298;28;20073;-84
2023/01/02 00:08:00;;;;;;;0.43;0.43;;;;;;;13.00;73.77;100570.06;5114397;28;20050;-83
2023/01/02 00:10:31;;;;;;;2.80;1.55;;;;;;;13.00;74.59;100573.53;5113589;28;20035;-83
2023/01/02 00:13:01;;;;;;;0.40;0.40;;;;;;;12.98;74.71;100580.63;5133058;28;20047;-83
2023/01/02 00:15:32;;;;;;;0.28;0.28;;;;;;;13.03;74.42;100590.97;5159519;28;20035;-83
2023/01/02 00:18:02;;;;;;;0.40;0.40;;;;;;;13.05;74.13;100581.25;5138634;28;20043;-83
2023/01/02 00:20:33;;;;;;;0.32;0.32;;;;;;;13.03;74.44;100577.81;5119728;28;20030;-83
2023/01/02 00:23:03;;;;;;;0.20;0.20;;;;;;;12.98;74.99;100585.06;5132485;28;20067;-83
2023/01/02 00:25:34;;;;;;;0.30;0.30;;;;;;;12.99;75.28;100587.63;5133955;28;20042;-83
2023/01/02 00:28:05;;;;;;;0.20;0.20;;;;;;;12.98;75.99;100593.78;5140137;28;20046;-83
2023/01/02 00:30:38;;;;;;;0.45;0.45;;;;;;;13.01;75.00;100588.41;5138187;28;20031;-83
2023/01/02 00:33:09;;;;;;;0.30;0.30;;;;;;;13.02;75.46;100589.25;5136392;28;20044;-83
2023/01/02 00:35:39;;;;;;;2.03;1.55;;;;;;;13.02;75.36;100584.88;5123059;28;20456;-83
2023/01/02 00:38:10;;;;;;;5.68;2.92;;;;;;;13.09;74.96;100582.88;5113963;28;20050;-83
2023/01/02 00:40:41;;;;;;;0.45;0.45;;;;;;;13.09;75.20;100587.25;5138554;28;20045;-83
2023/01/02 00:43:11;;;;;;;0.50;0.50;;;;;;;13.08;75.83;100583.78;5145054;28;20066;-83
2023/01/02 00:45:42;;;;;;;0.90;0.90;;;;;;;13.15;74.62;100569.44;5146211;28;20043;-82
2023/01/02 00:48:13;;;;;;;0.35;0.35;;;;;;;13.15;74.90;100568.56;5131598;28;20058;-83
2023/01/02 00:50:44;;;;;;;0.60;0.55;;;;;;;13.14;74.99;100573.00;5131774;28;20045;-83
2023/01/02 00:53:15;;;;;;;2.33;1.80;;;;;;;13.18;74.04;100569.28;5126568;28;20061;-83
2023/01/02 00:55:45;;;;;;;0.50;0.50;;;;;;;13.23;74.14;100569.09;5116498;28;20667;-84
2023/01/02 00:58:16;;;;;;;0.22;0.22;;;;;;;13.21;73.92;100569.19;5116454;28;20041;-83
2023/01/02 01:00:49;;;;;;;0.20;0.20;;;;;;;13.23;74.33;100587.56;5108034;28;20956;-84
2023/01/02 01:03:19;;;;;;;0.63;0.63;;;;;;;13.29;74.35;100573.28;5120312;28;20027;-83
2023/01/02 01:05:50;;;;;;;0.52;0.52;;;;;;;13.26;74.84;100571.63;5132004;28;20042;-82
2023/01/02 01:08:20;;;;;;;0.20;0.20;;;;;;;13.26;74.34;100576.06;5120945;28;20138;-83
2023/01/02 01:10:51;;;;;;;1.67;1.02;;;;;;;13.26;74.00;100561.09;5113149;28;20210;-83
2023/01/02 01:13:21;;;;;;;0.50;0.50;;;;;;;13.32;73.93;100557.34;5126046;28;20097;-83
2023/01/02 01:15:52;;;;;;;0.28;0.28;;;;;;;13.36;73.81;100564.19;5128566;28;20098;-83
2023/01/02 01:18:22;;;;;;;0.25;0.25;;;;;;;13.34;73.55;100556.38;5127047;28;20054;-83
2023/01/02 01:20:53;;;;;;;0.30;0.30;;;;;;;13.33;73.83;100566.97;5120749;28;20391;-83
2023/01/02 01:23:23;;;;;;;1.67;1.58;;;;;;;13.37;73.46;100568.56;5121732;28;20762;-83
2023/01/02 01:25:54;;;;;;;0.63;0.63;;;;;;;13.32;73.83;100560.84;5130111;28;20130;-83
2023/01/02 01:28:24;;;;;;;1.25;1.20;;;;;;;13.32;74.00;100552.09;5114298;28;20158;-82
2023/01/02 01:31:00;;;;;;;1.85;0.70;;;;;;;13.30;74.21;100556.56;5110209;28;20517;-83
2023/01/02 01:33:31;;;;;;;0.20;0.20;;;;;;;13.26;74.34;100554.97;5124485;28;20062;-83
2023/01/02 01:36:04;;;;;;;0.43;0.43;;;;;;;13.20;74.21;100556.94;5114880;28;20062;-83
2023/01/02 01:38:35;;;;;;;2.08;1.05;;;;;;;13.12;73.66;100552.91;5135847;28;20062;-82
2023/01/02 01:41:07;;;;;;;0.20;0.20;;;;;;;13.18;73.55;100553.47;5146020;28;20070;-82
2023/01/02 01:43:49;;;;;;;1.25;1.15;;;;;;;13.13;73.47;100566.00;5124739;28;20058;-82
2023/01/02 01:46:25;;;;;;;0.70;0.70;;;;;;;13.06;73.96;100560.09;5145141;28;20177;-82
2023/01/02 01:49:14;;;;;;;0.20;0.20;;;;;;;13.12;73.79;100559.00;5132253;28;20039;-83
2023/01/02 01:52:03;;;;;;;0.45;0.45;;;;;;;13.07;74.12;100560.97;5126018;28;20406;-83
2023/01/02 01:54:38;;;;;;;0.43;0.43;;;;;;;13.10;73.54;100560.84;5137174;28;20077;-82
2023/01/02 01:57:14;;;;;;;0.57;0.57;;;;;;;13.07;73.73;100566.25;5134389;28;20254;-82
2023/01/02 01:59:45;;;;;;;0.30;0.30;;;;;;;13.09;73.52;100564.41;5156683;28;20054;-84
2023/01/02 02:02:16;;;;;;;0.40;0.40;;;;;;;13.09;73.59;100574.97;5157981;28;20125;-82
2023/01/02 02:04:47;;;;;;;0.52;0.52;;;;;;;13.05;73.48;100573.34;5137333;28;20031;-83
2023/01/02 02:07:18;;;;;;;0.45;0.45;;;;;;;13.09;73.65;100588.13;5114500;28;20089;-83
2023/01/02 02:09:56;;;;;;;1.10;1.05;;;;;;;13.10;74.17;100579.28;5119991;28;20050;-83
2023/01/02 02:12:28;;;;;;;2.05;1.77;;;;;;;13.05;74.06;100579.50;5122104;28;20046;-83
2023/01/02 02:14:59;;;;;;;0.30;0.30;;;;;;;13.08;73.93;100583.78;5138408;28;20118;-81
2023/01/02 02:17:45;;;;;;;1.45;1.17;;;;;;;13.12;73.50;100574.81;5132233;28;20193;-82
2023/01/02 02:20:29;;;;;;;0.40;0.40;;;;;;;13.11;73.61;100590.69;5146547;28;20138;-83
2023/01/02 02:23:19;;;;;;;0.20;0.20;;;;;;;13.09;73.24;100590.75;5124236;28;20034;-83
2023/01/02 02:25:58;;;;;;;0.30;0.30;;;;;;;13.13;73.05;100594.97;5119859;28;20024;-83
2023/01/02 02:28:38;;;;;;;0.63;0.63;;;;;;;13.13;73.11;100587.06;5147042;28;20050;-83
2023/01/02 02:31:16;;;;;;;2.90;1.65;;;;;;;13.15;72.75;100577.34;5140154;28;20102;-83
2023/01/02 02:34:13;;;;;;;0.40;0.40;;;;;;;13.17;73.00;100570.25;5130253;28;20050;-83
2023/01/02 02:36:57;;;;;;;0.30;0.30;;;;;;;13.13;73.33;100571.28;5137916;28;20272;-83
2023/01/02 02:39:36;;;;;;;1.85;1.20;;;;;;;13.13;73.43;100563.38;5144893;28;20039;-82
2023/01/02 02:42:58;;;;;;;0.20;0.20;;;;;;;13.13;73.74;100552.81;5152026;28;20047;-82
2023/01/02 02:45:43;;;;;;;3.40;1.60;;;;;;;13.16;73.85;100544.81;5028602;29;20040;-83
2023/01/02 02:48:42;;;;;;;2.47;1.45;;;;;;;13.17;73.77;100541.25;5030755;29;20132;-83
2023/01/02 02:51:35;;;;;;;0.20;0.20;;;;;;;13.18;74.49;100544.75;5081062;28;20451;-84
2023/01/02 02:54:13;;;;;;;0.50;0.50;;;;;;;13.19;74.72;100541.19;5137654;28;20031;-83
2023/01/02 02:56:45;;;;;;;0.35;0.35;;;;;;;13.20;73.90;100540.28;5128462;28;20039;-83
2023/01/02 02:59:18;;;;;;;5.07;2.45;;;;;;;13.15;73.95;100561.53;5142589;28;20038;-83
2023/01/02 03:01:49;;;;;;;2.83;0.47;;;;;;;13.18;73.88;100574.56;5140990;28;20053;-82
2023/01/02 03:04:21;;;;;;;0.75;0.50;;;;;;;13.20;73.69;100583.28;5142049;28;20075;-81
2023/01/02 03:07:07;;;;;;;2.38;1.25;;;;;;;13.21;73.81;100589.41;5137533;28;20036;-82
2023/01/02 03:09:37;;;;;;;0.30;0.30;;;;;;;13.23;74.37;100590.19;5146557;28;20052;-82
2023/01/02 03:12:18;;;;;;;0.47;0.47;;;;;;;13.20;74.76;100575.38;5119097;28;20121;-82
2023/01/02 03:15:05;;;;;;;0.20;0.20;;;;;;;13.19;74.91;100581.56;5139292;28;20043;-83
2023/01/02 03:17:58;;;;;;;10.35;0.77;;;;;;;13.20;74.89;100580.63;5126354;28;20055;-83
2023/01/02 03:20:36;;;;;;;0.88;0.85;;;;;;;13.16;75.32;100576.44;5135342;28;20043;-82
2023/01/02 03:23:17;;;;;;;1.10;1.00;;;;;;;13.18;74.92;100566.66;5130171;28;20208;-84
2023/01/02 03:25:48;;;;;;;0.20;0.20;;;;;;;13.17;75.39;100578.16;5157214;28;20035;-83
2023/01/02 03:28:21;;;;;;;0.30;0.30;;;;;;;13.14;74.98;100567.72;5129154;28;20050;-83
2023/01/02 03:30:56;;;;;;;1.35;1.25;;;;;;;13.15;74.71;100576.47;5134128;28;20057;-83
2023/01/02 03:33:38;;;;;;;0.38;0.38;;;;;;;13.16;75.05;100563.25;5129730;28;20126;-82
2023/01/02 03:36:19;;;;;;;0.60;0.60;;;;;;;13.15;74.67;100574.72;5123991;28;20599;-83
2023/01/02 03:39:05;;;;;;;0.30;0.30;;;;;;;13.17;74.60;100567.59;5152524;28;20039;-83
2023/01/02 03:41:42;;;;;;;5.40;1.13;;;;;;;13.19;74.83;100575.44;5149720;28;20063;-82
2023/01/02 03:44:15;;;;;;;0.50;0.50;;;;;;;13.16;75.52;100579.06;5122558;28;20039;-83
2023/01/02 03:46:55;;;;;;;1.75;0.85;;;;;;;13.18;75.22;100585.09;5144443;28;20049;-82
2023/01/02 03:49:31;;;;;;;0.98;0.73;;;;;;;13.14;75.49;100588.78;5139828;28;20043;-82
2023/01/02 03:52:02;;;;;;;0.47;0.47;;;;;;;13.16;75.55;100586.97;5147106;28;20177;-82
2023/01/02 03:54:33;;;;;;;0.50;0.50;;;;;;;13.21;75.03;100590.25;5144963;28;20100;-82
2023/01/02 03:57:06;;;;;;;0.63;0.63;;;;;;;13.19;74.91;100597.34;5136399;28;20050;-82
2023/01/02 03:59:59;;;;;;;8.20;1.65;;;;;;;13.18;75.23;100592.16;5139638;28;20039;-82
2023/01/02 04:02:30;;;;;;;0.80;0.80;;;;;;;13.19;74.98;100594.72;5157977;28;20042;-83
2023/01/02 04:05:14;;;;;;;1.33;1.25;;;;;;;13.18;74.70;100595.63;5140058;28;20031;-83
2023/01/02 04:08:06;;;;;;;0.40;0.40;;;;;;;13.16;74.50;100592.22;5120360;28;20050;-82
2023/01/02 04:10:38;;;;;;;4.85;1.67;;;;;;;13.16;74.60;100581.69;5129455;28;20042;-83
2023/01/02 04:13:16;;;;;;;0.35;0.35;;;;;;;13.16;74.94;100580.81;5123836;28;20434;-83
2023/01/02 04:15:48;;;;;;;0.30;0.30;;;;;;;13.12;74.47;100593.25;5143240;28;20027;-82
2023/01/02 04:18:25;;;;;;;0.30;0.30;;;;;;;13.10;74.53;100584.56;5120646;28;20035;-82
2023/01/02 04:21:04;;;;;;;0.30;0.30;;;;;;;13.07;74.53;100587.31;5131134;28;20126;-83
2023/01/02 04:23:39;;;;;;;0.75;0.50;;;;;;;13.10;74.07;100591.59;5130929;28;20062;-82
2023/01/02 04:26:35;;;;;;;0.30;0.30;;;;;;;13.07;74.17;100597.84;5120760;28;20023;-83
2023/01/02 04:29:06;;;;;;;0.73;0.70;;;;;;;13.01;73.32;100598.94;5136832;28;20047;-83
2023/01/02 04:31:57;;;;;;;2.13;1.95;;;;;;;12.94;73.76;100592.22;5123791;28;20038;-82
2023/01/02 04:34:32;;;;;;;3.65;0.88;;;;;;;12.89;73.33;100599.44;5145177;28;20038;-82
2023/01/02 04:37:02;;;;;;;0.32;0.32;;;;;;;12.89;73.94;100600.28;5138224;28;20101;-82
2023/01/02 04:39:35;;;;;;;0.40;0.40;;;;;;;12.89;73.23;100605.56;5129323;28;20614;-81
2023/01/02 04:42:05;;;;;;;0.83;0.40;;;;;;;12.91;74.00;100598.47;5126777;28;20046;-83
2023/01/02 04:44:36;;;;;;;0.38;0.38;;;;;;;12.90;73.50;100607.28;5138680;28;20377;-82
2023/01/02 04:47:08;;;;;;;1.17;0.45;;;;;;;12.90;73.45;100612.53;5129461;28;20042;-82
2023/01/02 04:49:38;;;;;;;0.45;0.45;;;;;;;12.91;73.44;100611.63;5138642;28;20046;-82
2023/01/02 04:52:09;;;;;;;0.38;0.38;;;;;;;12.98;72.83;100619.28;5135542;28;20057;-83
2023/01/02 04:54:39;;;;;;;0.30;0.30;;;;;;;12.99;73.08;100610.47;5146478;28;20266;-83
2023/01/02 04:57:10;;;;;;;1.20;1.08;;;;;;;12.97;73.55;100618.44;5156875;28;20098;-83
2023/01/02 04:59:40;;;;;;;0.63;0.50;;;;;;;12.98;73.29;100619.28;5136878;28;20049;-82
2023/01/02 05:02:11;;;;;;;0.20;0.20;;;;;;;12.96;73.53;100618.47;5136516;28;20039;-82
2023/01/02 05:04:41;;;;;;;1.10;0.93;;;;;;;12.98;74.04;100619.28;5136120;28;20123;-81
2023/01/02 05:07:12;;;;;;;2.17;1.55;;;;;;;12.92;74.50;100615.09;5134844;28;20091;-82
2023/01/02 05:09:42;;;;;;;1.95;1.20;;;;;;;12.93;74.51;100626.53;5132440;28;20031;-82
2023/01/02 05:12:13;;;;;;;1.40;1.02;;;;;;;12.93;74.64;100622.09;5124314;28;20046;-82
2023/01/02 05:14:43;;;;;;;0.93;0.93;;;;;;;12.95;74.62;100632.56;5135165;28;20047;-82
2023/01/02 05:17:14;;;;;;;0.73;0.73;;;;;;;12.93;74.79;100631.78;5132233;28;20066;-82
2023/01/02 05:19:44;;;;;;;0.32;0.32;;;;;;;12.88;75.76;100639.84;5122780;28;20031;-82
2023/01/02 05:25:05;;;;;;;0.30;0.30;;;;;;;12.89;75.29;100642.44;5154152;28;20050;-83
2023/01/02 05:27:36;;;;;;;0.30;0.30;;;;;;;12.95;75.54;100627.28;5134057;28;20050;-82
2023/01/02 05:30:07;;;;;;;0.30;0.30;;;;;;;12.87;75.45;100635.50;5120677;28;20031;-82
2023/01/02 05:32:37;;;;;;;0.55;0.55;;;;;;;12.90;75.08;100643.28;5126484;28;20074;-81
2023/01/02 05:35:08;;;;;;;0.30;0.30;;;;;;;12.87;75.61;100638.97;5154792;28;20054;-81
2023/01/02 05:37:40;;;;;;;0.38;0.30;;;;;;;12.85;75.99;100645.22;5113715;28;20233;-81
2023/01/02 05:40:12;;;;;;;0.30;0.30;;;;;;;12.81;76.50;100644.50;5144010;28;20522;-82
2023/01/02 05:42:43;;;;;;;0.32;0.32;;;;;;;12.86;75.96;100662.75;5127398;28;20031;-81
2023/01/02 05:45:13;;;;;;;0.43;0.43;;;;;;;12.83;76.15;100647.94;5165409;28;20039;-83
2023/01/02 05:47:44;;;;;;;0.28;0.28;;;;;;;12.90;76.25;100659.06;5126087;28;20055;-82
2023/01/02 05:50:14;;;;;;;0.20;0.20;;;;;;;12.80;77.04;100655.94;5148119;28;20523;-82
2023/01/02 05:52:45;;;;;;;0.70;0.70;;;;;;;12.82;76.91;100655.88;5144764;28;20066;-82
2023/01/02 05:55:15;;;;;;;2.42;0.43;;;;;;;12.76;77.06;100662.25;5139191;28;20027;-83
2023/01/02 05:57:46;;;;;;;0.63;0.63;;;;;;;12.77;77.23;100669.19;5134279;28;20134;-82
2023/01/02 06:00:17;;;;;;;0.40;0.40;;;;;;;12.80;76.57;100663.00;5147352;28;20121;-82
2023/01/02 06:02:47;;;;;;;0.20;0.20;;;;;;;12.75;76.74;100666.63;5156757;28;20046;-82
2023/01/02 06:05:18;;;;;;;0.70;0.70;;;;;;;12.75;77.03;100665.78;5144787;28;20023;-82
2023/01/02 06:07:48;;;;;;;0.77;0.77;;;;;;;12.78;76.87;100665.66;5145998;28;20074;-81
2023/01/02 06:10:18;;;;;;;0.40;0.40;;;;;;;12.76;76.79;100664.88;5127193;28;20081;-82
2023/01/02 06:12:49;;;;;;;2.55;1.20;;;;;;;12.74;77.06;100674.59;5131396;28;20046;-82
2023/01/02 06:15:19;;;;;;;0.43;0.43;;;;;;;12.72;77.20;100679.06;5142840;28;20031;-81
2023/01/02 06:17:50;;;;;;;1.35;1.25;;;;;;;12.72;77.15;100676.41;5126734;28;20039;-81
2023/01/02 06:20:20;;;;;;;0.28;0.28;;;;;;;12.73;77.00;100675.50;5143586;28;20038;-80
2023/01/02 06:22:51;;;;;;;0.20;0.20;;;;;;;12.64;77.24;100673.22;5129069;28;20131;-81
2023/01/02 06:25:21;;;;;;;0.40;0.40;;;;;;;12.65;77.17;100682.81;5148588;28;20165;-81
2023/01/02 06:27:52;;;;;;;0.40;0.40;;;;;;;12.71;76.73;100688.75;5132207;28;20043;-82
2023/01/02 06:30:22;;;;;;;0.60;0.30;;;;;;;12.75;76.74;100684.22;5138806;28;20064;-81
2023/01/02 06:32:55;;;;;;;0.30;0.30;;;;;;;12.66;77.71;100692.44;5126426;28;20061;-82
2023/01/02 06:35:25;;;;;;;1.83;0.80;;;;;;;12.66;77.22;100688.03;5126970;28;20039;-81
2023/01/02 06:37:56;;;;;;;0.20;0.20;;;;;;;12.68;77.20;100685.38;5124476;28;20283;-82
2023/01/02 06:40:26;;;;;;;0.38;0.38;;;;;;;12.63;77.31;100687.28;5126609;28;20119;-81
2023/01/02 06:42:57;;;;;;;0.40;0.40;;;;;;;12.70;77.23;100696.66;5140346;28;20077;-82
2023/01/02 06:45:30;;;;;;;0.50;0.50;;;;;;;12.60;77.78;100693.53;5127994;28;20046;-82
2023/01/02 06:48:01;;;;;;;0.63;0.63;;;;;;;12.65;77.42;100696.00;5144430;28;20043;-82
2023/01/02 06:50:31;;;;;;;0.50;0.50;;;;;;;12.67;77.36;100702.06;5141989;28;20082;-82
2023/01/02 06:53:02;;;;;;;0.20;0.20;;;;;;;12.59;77.40;100702.31;5146406;28;20058;-82
2023/01/02 06:55:33;;;;;;;0.63;0.63;;;;;;;12.64;77.59;100710.94;5145045;28;20751;-81
2023/01/02 06:58:04;;;;;;;0.35;0.35;;;;;;;12.58;77.85;100704.13;5144512;28;20138;-82
2023/01/02 07:00:35;;;;;;;0.43;0.43;;;;;;;12.64;78.05;100712.69;5126219;28;20034;-81
2023/01/02 07:03:05;;;;;;;0.30;0.30;;;;;;;12.56;78.10;100713.81;5145267;28;20046;-81
2023/01/02 07:05:36;;;;;;;0.30;0.30;;;;;;;12.55;78.37;100716.53;5151552;28;20031;-81
2023/01/02 07:08:06;;;;;;;0.30;0.30;;;;;;;12.64;78.23;100717.97;5148865;28;20098;-82
2023/01/02 07:10:37;;;;;;;0.30;0.30;;;;;;;12.68;77.77;100730.13;5156815;28;20051;-81
2023/01/02 07:13:08;;;;;;;0.20;0.20;;;;;;;12.57;78.56;100730.47;5135060;28;20674;-81
2023/01/02 07:15:38;;;;;;;0.25;0.25;;;;;;;12.61;79.04;100737.34;5142415;28;20027;-82
2023/01/02 07:18:09;;;;;;;0.47;0.47;;;;;;;12.63;78.77;100737.28;5137866;28;20475;-81
2023/01/02 07:20:39;;;;;;;0.30;0.30;;;;;;;12.52;79.69;100741.16;5124630;28;20027;-82
2023/01/02 07:23:10;;;;;;;0.40;0.40;;;;;;;12.63;78.77;100745.19;5141354;28;20634;-81
2023/01/02 07:25:40;;;;;;;0.35;0.35;;;;;;;12.62;78.99;100743.47;5126565;28;20102;-81
2023/01/02 07:28:11;;;;;;;0.25;0.25;;;;;;;12.48;79.83;100755.34;5124002;28;20042;-82
2023/01/02 07:30:42;;;;;;;0.20;0.20;;;;;;;12.53;79.60;100756.03;5143504;28;20556;-81
2023/01/02 07:33:12;;;;;;;0.30;0.30;;;;;;;12.52;79.74;100762.22;5132473;28;20105;-81
2023/01/02 07:35:44;;;;;;;11.80;1.15;;;;;;;12.51;79.63;100773.69;5138126;28;20054;-81
2023/01/02 07:38:14;;;;;;;0.25;0.25;;;;;;;12.48;80.09;100770.28;5135448;28;20091;-80
2023/01/02 07:40:45;;;;;;;0.73;0.73;;;;;;;12.46;80.49;100762.44;5120341;28;20118;-80
2023/01/02 07:43:15;;;;;;;0.20;0.20;;;;;;;12.49;80.82;100778.13;5139293;28;20042;-80
2023/01/02 07:45:46;;;;;;;0.52;0.52;;;;;;;12.36;81.57;100779.44;5118366;28;20596;-80
2023/01/02 07:48:17;;;;;;;0.20;0.20;;;;;;;12.45;80.15;100781.75;5126402;28;20042;-80
2023/01/02 07:50:48;;;;;;;0.28;0.28;;;;;;;12.40;80.97;100781.91;5129102;28;20031;-80
2023/01/02 07:53:18;;;;;;;0.93;0.93;;;;;;;12.39;80.85;100789.88;5131399;28;20625;-80
2023/01/02 07:55:56;;;;;;;0.32;0.32;;;;;;;12.36;81.33;100803.09;5137728;28;20080;-80
2023/01/02 07:58:27;;;;;;;0.20;0.20;;;;;;;12.36;81.41;100808.38;5149074;28;20249;-80
2023/01/02 08:00:57;;;;;;;0.25;0.25;;;;;;;12.39;81.02;100806.53;5150652;28;20038;-80
2023/01/02 08:03:30;;;;;;;3.13;1.98;;;;;;;12.31;81.35;100810.31;5139991;28;20050;-80
2023/01/02 08:06:14;;;;;;;1.08;1.05;;;;;;;12.33;81.29;100808.50;5134080;28;20063;-80
2023/01/02 08:08:45;;;;;;;0.47;0.47;;;;;;;12.30;81.79;100827.00;5126402;28;20620;-80
2023/01/02 08:11:19;;;;;;;0.22;0.22;;;;;;;12.20;82.53;100843.06;5135776;28;20046;-80
2023/01/02 08:13:50;;;;;;;0.63;0.63;;;;;;;12.24;82.37;100841.22;5127381;28;20026;-80
2023/01/02 08:16:21;;;;;;;0.30;0.30;;;;;;;12.26;82.40;100847.28;5127677;28;20129;-81
2023/01/02 08:18:55;;;;;;;0.50;0.50;;;;;;;12.26;82.32;100856.06;5136887;28;20035;-80
2023/01/02 08:21:26;;;;;;;0.82;0.82;;;;;;;12.28;82.14;100856.84;5146118;28;20058;-80
2023/01/02 08:23:56;;;;;;;0.32;0.32;;;;;;;12.17;83.11;100861.59;5133651;28;20039;-80
2023/01/02 08:26:27;;;;;;;0.30;0.30;;;;;;;12.10;84.14;100862.72;5130219;28;20485;-80
2023/01/02 08:28:58;;;;;;;0.25;0.25;;;;;;;12.12;83.95;100861.75;5108631;28;20054;-81
2023/01/02 08:31:29;;;;;;;0.63;0.60;;;;;;;12.12;84.11;100871.38;5116900;28;20046;-80
2023/01/02 08:33:59;;;;;;;0.20;0.20;;;;;;;12.11;83.79;100869.66;5137707;28;20050;-80
2023/01/02 08:36:30;;;;;;;0.38;0.38;;;;;;;12.04;83.91;100876.91;5141537;28;20090;-81
2023/01/02 08:39:00;;;;;;;0.20;0.20;;;;;;;12.01;83.23;100889.28;5153445;28;20053;-80
2023/01/02 08:41:37;;;;;;;0.30;0.30;;;;;;;12.00;83.25;100908.59;5147846;28;20047;-80
2023/01/02 08:44:08;;;;;;;0.30;0.30;;;;;;;11.85;84.44;100907.25;5142808;28;20028;-80
2023/01/02 08:46:38;;;;;;;0.30;0.30;;;;;;;11.79;84.48;100905.66;5124101;28;20066;-80
2023/01/02 08:49:09;;;;;;;1.10;0.75;;;;;;;11.86;83.99;100920.34;5123612;28;20042;-80
2023/01/02 08:51:40;;;;;;;0.52;0.52;;;;;;;11.79;84.55;100931.94;5131079;28;20035;-80
2023/01/02 08:54:10;;;;;;;1.20;0.73;;;;;;;11.75;84.34;100935.56;5143200;28;20057;-80
2023/01/02 08:56:41;;;;;;;0.32;0.32;;;;;;;11.72;84.35;100948.78;5144504;28;20035;-81
2023/01/02 08:59:12;;;;;;;0.20;0.20;;;;;;;11.67;84.73;100954.19;5137269;28;20709;-81
2023/01/02 09:01:42;;;;;;;1.05;1.00;;;;;;;11.75;84.80;100957.47;5125288;28;20123;-81
2023/01/02 09:04:13;;;;;;;0.50;0.50;;;;;;;11.73;85.03;100961.03;5126626;28;20317;-81
2023/01/02 09:06:44;;;;;;;0.40;0.40;;;;;;;11.71;85.24;100970.72;5122289;28;20042;-82
2023/01/02 09:09:16;;;;;;;0.50;0.50;;;;;;;11.76;84.86;100980.22;5136035;28;20584;-81
2023/01/02 09:11:49;;;;;;;0.55;0.55;;;;;;;11.77;84.61;100981.94;5134991;28;20036;-81
2023/01/02 09:14:21;;;;;;;0.30;0.30;;;;;;;11.75;83.82;100978.47;5153612;28;20047;-81
2023/01/02 09:16:52;;;;;;;0.28;0.28;;;;;;;11.74;83.23;100975.91;5129880;28;20039;-81
2023/01/02 09:19:23;;;;;;;0.30;0.30;;;;;;;11.73;82.73;100982.06;5132080;28;20033;-81
2023/01/02 09:21:54;;;;;;;0.20;0.20;;;;;;;11.80;82.01;100983.63;5137451;28;20054;-81
2023/01/02 09:24:24;;;;;;;0.20;0.20;;;;;;;11.71;81.99;100999.63;5137034;28;20033;-83
2023/01/02 09:26:55;;;;;;;0.30;0.30;;;;;;;11.58;81.73;101000.00;5108522;28;20039;-83
2023/01/02 09:29:25;;;;;;;0.22;0.22;;;;;;;11.75;81.31;101010.03;5127683;28;20041;-83
2023/01/02 09:31:56;;;;;;;1.42;1.33;;;;;;;11.58;81.58;101020.13;5129675;28;20038;-84
2023/01/02 09:34:26;;;;;;;0.30;0.30;;;;;;;11.62;80.79;101022.63;5131606;28;20062;-84
2023/01/02 09:36:57;;;;;;;0.20;0.20;;;;;;;11.55;81.10;101023.72;5127049;28;20198;-83
2023/01/02 09:39:27;;;;;;;0.30;0.30;;;;;;;11.57;80.26;101026.31;5112622;28;20054;-83
2023/01/02 09:41:59;;;;;;;0.20;0.20;;;;;;;11.51;80.97;101037.84;5110299;28;20046;-82
2023/01/02 09:44:41;;;;;;;0.30;0.30;;;;;;;11.50;80.52;101030.88;5115632;28;20077;-82
2023/01/02 09:47:30;;;;;;;0.20;0.20;;;;;;;11.57;80.08;101042.94;5131541;28;20663;-82
2023/01/02 09:50:02;;;;;;;0.30;0.30;;;;;;;11.49;80.29;101050.16;5152010;28;20035;-83
2023/01/02 09:52:37;;;;;;;0.30;0.30;;;;;;;11.59;80.04;101049.03;5119745;28;20750;-83
2023/01/02 09:55:31;;;;;;;0.40;0.40;;;;;;;11.51;80.13;101056.25;5130141;28;20121;-84
2023/01/02 09:58:37;;;;;;;0.20;0.20;;;;;;;11.46;80.60;101065.97;5114857;28;20126;-82
2023/01/02 10:01:15;;;;;;;0.30;0.30;;;;;;;11.42;80.74;101066.97;5129433;28;20140;-84
2023/01/02 10:04:11;;;;;;;0.20;0.20;;;;;;;11.43;80.82;101066.09;5132807;28;20090;-83
2023/01/02 10:07:07;;;;;;;0.40;0.40;;;;;;;11.39;80.48;101077.56;5116495;28;20097;-83
2023/01/02 10:10:02;;;;;;;0.20;0.20;;;;;;;11.35;80.37;101071.50;5106806;28;20054;-83
2023/01/02 10:12:55;;;;;;;0.77;0.77;;;;;;;11.34;79.97;101072.41;5150531;28;20513;-83
2023/01/02 10:15:28;;;;;;;0.20;0.20;;;;;;;11.20;80.37;101074.53;5120439;28;20814;-83
2023/01/02 10:18:29;;;;;;;0.73;0.73;;;;;;;11.27;80.02;101094.47;5117710;28;20110;-82
2023/01/02 10:21:06;;;;;;;0.35;0.35;;;;;;;11.30;80.48;101097.03;5132764;28;20043;-84
2023/01/02 10:23:48;;;;;;;0.45;0.45;;;;;;;11.37;79.62;101089.84;5121975;28;20138;-84
2023/01/02 10:26:21;;;;;;;0.85;0.85;;;;;;;11.29;80.54;101085.66;5131815;28;20057;-83
2023/01/02 10:29:13;;;;;;;1.67;0.88;;;;;;;11.16;80.67;101081.63;5127111;28;20031;-84
2023/01/02 10:32:15;;;;;;;0.73;0.73;;;;;;;11.22;80.97;101073.56;5119059;28;20027;-83
2023/01/02 10:35:20;;;;;;;0.45;0.45;;;;;;;11.29;80.38;101077.78;5105953;28;20134;-84
2023/01/02 10:37:53;;;;;;;0.30;0.30;;;;;;;11.25;80.50;101083.13;5133916;28;20039;-84
2023/01/02 10:40:24;;;;;;;0.20;0.20;;;;;;;11.19;80.27;101086.81;5136835;28;20037;-84
2023/01/02 10:42:56;;;;;;;1.05;0.70;;;;;;;11.24;79.83;101092.81;5132727;28;20047;-83
2023/01/02 10:45:27;;;;;;;0.40;0.40;;;;;;;11.26;80.03;101098.88;5135481;28;20524;-83
2023/01/02 10:47:58;;;;;;;0.30;0.30;;;;;;;11.28;79.74;101109.34;5132556;28;20027;-84
2023/01/02 10:50:35;;;;;;;0.65;0.65;;;;;;;11.33;79.52;101103.09;5140116;28;20035;-83
2023/01/02 10:53:38;;;;;;;1.02;0.98;;;;;;;11.38;78.93;101100.34;5151558;28;20066;-83
2023/01/02 10:56:18;;;;;;;0.35;0.35;;;;;;;11.36;79.41;101101.28;5151356;28;20238;-84
2023/01/02 10:58:50;;;;;;;0.60;0.60;;;;;;;11.23;79.61;101106.81;5138841;28;20031;-83
2023/01/02 11:01:21;;;;;;;0.40;0.35;;;;;;;11.21;79.75;101107.78;5123937;28;20077;-84
2023/01/02 11:03:55;;;;;;;0.40;0.40;;;;;;;11.37;79.62;101093.38;5133863;28;20133;-83
2023/01/02 11:06:30;;;;;;;0.35;0.35;;;;;;;11.41;79.34;101089.75;5126368;28;20117;-84
2023/01/02 11:09:14;;;;;;;0.77;0.77;;;;;;;11.40;79.75;101093.31;5149369;28;20027;-84
2023/01/02 11:11:57;;;;;;;0.57;0.57;;;;;;;11.52;79.82;101102.66;5111513;28;20051;-85
2023/01/02 11:14:31;;;;;;;0.63;0.63;;;;;;;11.38;80.74;101094.22;5123966;28;20051;-84
2023/01/02 11:17:15;;;;;;;0.52;0.52;;;;;;;11.45;80.64;101101.03;5122111;28;20057;-85
2023/01/02 11:19:48;;;;;;;0.52;0.52;;;;;;;11.39;80.11;101106.44;5132650;28;20035;-84
2023/01/02 11:22:30;;;;;;;0.68;0.65;;;;;;;11.55;79.54;101112.22;5112373;28;20031;-84
2023/01/02 11:25:04;;;;;;;0.70;0.70;;;;;;;11.62;79.52;101109.38;5134830;28;20041;-84
2023/01/02 11:27:44;;;;;;;0.63;0.63;;;;;;;11.59;79.52;101109.47;5117954;28;20034;-84
2023/01/02 11:30:41;;;;;;;1.40;0.88;;;;;;;11.69;79.20;101109.25;5122100;28;20073;-83
2023/01/02 11:33:12;;;;;;;1.05;1.05;;;;;;;11.63;79.22;101105.84;5137939;28;20113;-85
2023/01/02 11:35:55;;;;;;;0.30;0.30;;;;;;;11.69;79.08;101103.97;5133667;28;20043;-84
2023/01/02 11:38:39;;;;;;;0.67;0.67;;;;;;;11.85;78.65;101105.31;5138442;28;20773;-82
2023/01/02 11:44:44;;;;;;;1.58;1.48;;;;;;;11.63;78.77;101110.25;5129320;28;20050;-83
2023/01/02 11:47:15;;;;;;;0.30;0.30;;;;;;;11.68;78.39;101123.28;5133021;28;20057;-82
2023/01/02 11:49:48;;;;;;;2.35;2.15;;;;;;;11.80;78.18;101134.34;5122062;28;20041;-82
2023/01/02 11:52:24;;;;;;;0.70;0.68;;;;;;;11.74;78.26;101129.22;5136779;28;20034;-83
2023/01/02 11:55:02;;;;;;;0.60;0.60;;;;;;;11.70;78.01;101131.97;5125091;28;20541;-82
2023/01/02 11:58:00;;;;;;;1.08;0.98;;;;;;;11.59;78.53;101130.50;5131676;28;20040;-82
2023/01/02 12:00:34;;;;;;;0.28;0.28;;;;;;;11.50;78.53;101130.72;5129079;28;20114;-83
2023/01/02 12:03:13;;;;;;;0.70;0.70;;;;;;;11.45;79.08;101143.09;5123530;28;20054;-82
2023/01/02 12:05:52;;;;;;;0.50;0.50;;;;;;;11.41;79.35;101150.19;5131097;28;20031;-82